Latest Weather Observations for Pallamana

IDS60901

Issued at 8:31 pm CDT Saturday 31 January 2015 (issued every 10 minutes, with the page automatically refreshed every 10 minutes)

About weather observations | Map of Adelaide area stations | Latest observations for Adelaide area | Other Formats
Station Details ID: 024584 Name: PALLAMANA AERODROME Lat: -35.06 Lon: 139.23 Height: 45.0 m
Data from the previous 72 hours. | See also: Recent months at Pallamana
Date/Time
CDT
Tmp

°C
App
Tmp
°C
Dew
Point
°C
Rel
Hum
%
Delta-T

°C
Wind Press
QNH
hPa
Press
MSL
hPa
Rain
since
9 am
mm
Dir
 
Spd
km/h
Gust
km/h
Spd
kts
Gust
kts
31/08:30pm 16.7 11.8 9.8 63 3.6 SSW 26 41 14 22 1015.9 1015.7 0.0
31/08:00pm 17.5 12.2 9.7 60 4.1 SSW 28 39 15 21 1016.0 1015.8 0.0
31/07:30pm 17.9 11.7 9.3 57 4.5 SSW 32 43 17 23 1015.9 1015.7 0.0
31/07:00pm 18.3 12.2 9.6 57 4.6 SSW 32 43 17 23 1015.7 1015.5 0.0
31/06:30pm 18.9 12.3 10.1 56 4.7 SSW 35 44 19 24 1015.3 1015.1 0.0
31/06:00pm 19.3 12.8 10.4 56 4.8 SSW 35 48 19 26 1015.0 1014.8 0.0
31/05:30pm 20.0 13.1 10.4 54 5.2 SSW 37 50 20 27 1014.9 1014.7 0.0
31/05:00pm 21.5 13.8 10.1 48 6.2 SSW 41 56 22 30 1015.0 1014.8 0.0
31/04:30pm 21.5 14.8 9.6 46 6.4 SSW 35 48 19 26 1015.2 1015.0 0.0
31/04:00pm 21.6 14.9 7.5 40 7.3 SSW 32 46 17 25 1015.0 1014.8 0.0
31/03:47pm 22.5 16.5 7.0 36 8.0 SSW 28 46 15 25 1015.0 1014.8 0.0
31/03:30pm 21.5 15.2 7.4 40 7.3 S 30 39 16 21 1015.1 1014.9 0.0
31/03:00pm 23.0 17.7 8.3 39 7.8 SSW 26 39 14 21 1015.0 1014.8 0.0
31/02:53pm 21.9 16.1 7.9 40 7.3 SSW 28 46 15 25 1015.1 1014.9 0.0
31/02:30pm 22.6 16.3 7.4 37 7.9 SSW 30 41 16 22 1015.0 1014.8 0.0
31/02:00pm 21.4 15.4 7.2 40 7.3 S 28 39 15 21 1015.1 1014.9 0.0
31/01:50pm 21.8 15.7 6.5 37 7.8 SSW 28 56 15 30 1015.0 1014.8 0.0
31/01:30pm 21.7 16.4 6.8 38 7.6 S 24 41 13 22 1015.5 1015.3 0.0
31/01:00pm 21.5 16.1 6.5 37 7.6 SSW 24 35 13 19 1015.8 1015.6 0.0
31/12:30pm 21.6 16.1 6.1 36 7.8 S 24 39 13 21 1016.1 1015.9 0.0
31/12:00pm 20.5 15.4 6.1 39 7.2 S 22 32 12 17 1016.4 1016.2 0.0
31/11:30am 20.3 15.0 6.9 41 6.8 S 24 37 13 20 1016.6 1016.4 0.0
31/11:00am 19.7 15.6 6.0 40 6.8 SSW 17 28 9 15 1016.8 1016.6 0.0
31/10:30am 19.5 14.5 6.5 42 6.5 S 22 32 12 17 1016.9 1016.7 0.0
31/10:00am 18.0 13.7 7.8 51 5.2 SSE 20 30 11 16 1017.2 1017.0 0.0
31/09:30am 17.8 12.9 7.0 49 5.4 SSE 22 32 12 17 1017.3 1017.1 0.0
31/09:00am 17.4 13.1 9.4 59 4.2 SSE 22 32 12 17 1017.2 1017.0 0.0
31/08:30am 16.2 12.5 9.5 64 3.5 SSE 19 26 10 14 1017.2 1017.0 0.0
31/08:00am 15.2 11.5 10.2 72 2.6 SSE 20 26 11 14 1016.9 1016.7 0.0
31/07:30am 13.5 11.5 10.0 79 1.8 SSW 11 17 6 9 1016.7 1016.5 0.0
31/07:00am 12.3 9.5 10.0 86 1.2 SW 15 17 8 9 1016.5 1016.3 0.0
31/06:30am 11.6 8.7 9.6 87 1.0 SW 15 17 8 9 1016.3 1016.1 0.0
31/06:00am 11.9 9.3 9.3 84 1.3 SSW 13 17 7 9 1016.0 1015.8 0.0
31/05:30am 11.7 8.6 8.7 82 1.5 SSW 15 19 8 10 1015.8 1015.6 0.0
31/05:00am 12.0 8.8 8.6 80 1.7 SSW 15 22 8 12 1015.4 1015.2 0.0
31/04:30am 12.5 8.8 8.0 74 2.2 SSW 17 20 9 11 1015.2 1015.0 0.0
31/04:00am 12.8 9.5 7.9 72 2.4 S 15 26 8 14 1015.0 1014.8 0.0
31/03:30am 12.8 9.0 7.7 71 2.5 SSW 17 20 9 11 1015.1 1014.9 0.0
31/03:00am 12.7 8.5 7.6 71 2.5 SSW 19 20 10 11 1015.1 1014.9 0.0
31/02:30am 12.7 9.0 7.8 72 2.4 SSW 17 20 9 11 1015.1 1014.9 0.0
31/02:00am 12.8 9.2 8.2 73 2.3 SW 17 20 9 11 1015.1 1014.9 0.0
31/01:30am 12.6 9.5 9.0 79 1.8 SW 15 17 8 9 1015.2 1015.0 0.0
31/01:00am 12.9 9.5 10.4 85 1.3 SW 19 22 10 12 1015.2 1015.0 0.0
31/12:30am 13.2 10.2 10.5 84 1.4 WSW 17 20 9 11 1015.3 1015.1 0.0
31/12:00am 13.9 10.6 10.9 82 1.6 SW 19 20 10 11 1015.4 1015.2 0.0
 
Date/Time
CDT
Tmp

°C
App
Tmp
°C
Dew
Point
°C
Rel
Hum
%
Delta-T

°C
Wind Press
QNH
hPa
Press
MSL
hPa
Rain
since
9 am
mm
Dir
 
Spd
km/h
Gust
km/h
Spd
kts
Gust
kts
30/11:30pm 14.1 11.6 10.9 81 1.7 SW 15 19 8 10 1015.6 1015.4 0.0
30/11:00pm 14.5 11.6 11.1 80 1.8 WSW 17 20 9 11 1015.8 1015.6 0.0
30/10:30pm 15.1 12.6 11.0 76 2.2 SW 15 19 8 10 1015.7 1015.5 0.0
30/10:00pm 15.9 12.4 11.0 72 2.6 SSW 20 24 11 13 1015.6 1015.4 0.0
30/09:30pm 16.4 12.9 11.0 70 2.9 SSW 20 26 11 14 1015.4 1015.2 0.0
30/09:00pm 16.9 13.4 10.3 65 3.5 SSW 19 26 10 14 1015.4 1015.2 0.0
30/08:30pm 17.6 13.7 9.6 59 4.2 SSW 20 32 11 17 1015.0 1014.8 0.0
30/08:00pm 18.5 13.7 8.9 53 5.0 SSW 24 35 13 19 1014.8 1014.6 0.0
30/07:30pm 19.4 12.6 7.7 46 6.0 SSW 33 41 18 22 1014.6 1014.4 0.0
30/07:00pm 20.1 13.0 7.9 45 6.3 SSW 35 43 19 23 1014.3 1014.1 0.0
30/06:30pm 20.9 14.4 8.3 44 6.6 S 32 39 17 21 1014.0 1013.8 0.0
30/06:00pm 22.0 15.7 8.8 43 7.0 SSW 32 41 17 22 1014.0 1013.8 0.0
30/05:30pm 22.9 16.6 8.9 40 7.5 SSW 32 44 17 24 1013.8 1013.6 0.0
30/05:00pm 24.2 18.1 8.3 36 8.5 SSW 30 39 16 21 1013.9 1013.7 0.0
30/04:30pm 24.5 19.1 7.9 34 8.8 S 26 37 14 20 1014.0 1013.8 0.0
30/04:00pm 25.3 19.7 7.3 31 9.5 SSE 26 39 14 21 1014.1 1013.9 0.0
30/03:30pm 25.7 20.9 5.6 27 10.3 S 20 32 11 17 1014.3 1014.1 0.0
30/03:00pm 25.3 20.9 4.9 27 10.3 S 17 33 9 18 1014.5 1014.3 0.0
30/02:30pm 25.8 21.1 5.2 26 10.5 S 19 30 10 16 1014.8 1014.6 0.0
30/02:00pm 24.3 19.8 5.9 30 9.4 S 19 30 10 16 1015.4 1015.2 0.0
30/01:30pm 24.5 20.4 6.0 30 9.5 S 17 33 9 18 1015.6 1015.4 0.0
30/01:00pm 23.4 19.1 5.3 31 9.1 S 17 26 9 14 1016.2 1016.0 0.0
30/12:30pm 23.0 19.5 5.5 32 8.8 SE 13 20 7 11 1016.5 1016.3 0.0
30/12:00pm 22.9 19.7 6.8 35 8.3 SSE 13 22 7 12 1016.9 1016.7 0.0
30/11:30am 22.3 18.2 6.1 35 8.2 SE 17 24 9 13 1017.2 1017.0 0.0
30/11:00am 21.1 17.9 6.7 39 7.3 SSE 13 20 7 11 1017.5 1017.3 0.0
30/10:30am 19.1 16.5 7.8 48 5.8 SSE 11 19 6 10 1017.8 1017.6 0.0
30/10:00am 18.9 15.9 7.7 48 5.7 SE 13 19 7 10 1018.1 1017.9 0.0
30/09:30am 17.0 13.5 7.4 53 4.8 SSE 15 22 8 12 1018.4 1018.2 0.0
30/09:00am 16.7 13.2 7.3 54 4.7 SE 15 24 8 13 1018.4 1018.2 0.0
30/08:30am 16.0 12.4 6.9 54 4.5 SSE 15 20 8 11 1018.5 1018.3 0.0
30/08:00am 15.3 12.6 7.2 58 4.0 SSW 11 15 6 8 1018.5 1018.3 0.0
30/07:30am 14.1 11.3 6.9 62 3.5 SSW 11 13 6 7 1018.1 1017.9 0.0
30/07:00am 12.3 8.8 7.1 70 2.5 SW 15 17 8 9 1017.8 1017.6 0.0
30/06:30am 11.7 7.6 6.4 70 2.5 SW 17 17 9 9 1017.5 1017.3 0.0
30/06:00am 12.4 8.6 6.0 65 3.0 SW 15 19 8 10 1017.3 1017.1 0.0
30/05:30am 12.0 8.1 5.5 64 3.0 SW 15 17 8 9 1016.9 1016.7 0.0
30/05:00am 12.8 8.6 5.8 62 3.3 WSW 17 20 9 11 1016.7 1016.5 0.0
30/04:30am 13.1 8.9 5.6 60 3.5 SW 17 20 9 11 1016.6 1016.4 0.0
30/04:00am 13.9 9.6 5.4 56 4.0 SW 17 20 9 11 1016.4 1016.2 0.0
30/03:30am 13.9 9.8 6.4 60 3.6 WSW 17 20 9 11 1016.4 1016.2 0.0
30/03:00am 14.6 10.9 6.5 58 3.9 WSW 15 17 8 9 1016.2 1016.0 0.0
30/02:30am 15.3 11.9 7.7 60 3.8 SSW 15 19 8 10 1016.0 1015.8 0.0
30/02:00am 15.1 12.6 9.7 70 2.8 SW 13 15 7 8 1016.0 1015.8 0.0
30/01:30am 15.7 13.2 11.2 74 2.4 SSW 15 17 8 9 1015.8 1015.6 0.0
30/01:00am 16.2 14.0 13.3 83 1.6 SW 17 20 9 11 1015.8 1015.6 0.0
30/12:30am 16.2 13.8 13.9 86 1.3 SW 19 22 10 12 1015.8 1015.6 0.0
30/12:00am 16.5 14.2 14.0 85 1.4 SSW 19 24 10 13 1015.9 1015.7 0.0
 
Date/Time
CDT
Tmp

°C
App
Tmp
°C
Dew
Point
°C
Rel
Hum
%
Delta-T

°C
Wind Press
QNH
hPa
Press
MSL
hPa
Rain
since
9 am
mm
Dir
 
Spd
km/h
Gust
km/h
Spd
kts
Gust
kts
29/11:30pm 16.4 15.1 13.7 84 1.5 SW 13 17 7 9 1016.1 1015.9 0.0
29/11:00pm 16.7 14.3 13.7 82 1.7 SW 19 22 10 12 1016.2 1016.0 0.0
29/10:30pm 17.2 14.3 13.9 81 1.9 SW 22 26 12 14 1016.3 1016.1 0.0
29/10:00pm 17.6 14.5 13.5 77 2.3 SW 22 28 12 15 1016.3 1016.1 0.0
29/09:30pm 18.0 15.2 13.2 73 2.7 SW 20 26 11 14 1016.2 1016.0 0.0
29/09:00pm 18.8 15.9 12.9 68 3.3 SW 20 30 11 16 1016.1 1015.9 0.0
29/08:30pm 19.7 15.5 12.4 62 4.1 SSW 26 33 14 18 1016.0 1015.8 0.0
29/08:00pm 21.1 16.3 11.6 54 5.3 SSW 28 41 15 22 1015.8 1015.6 0.0
29/07:30pm 22.7 18.5 11.0 47 6.5 SSW 24 37 13 20 1015.5 1015.3 0.0
29/07:00pm 23.5 17.9 10.2 43 7.3 SSW 30 41 16 22 1015.2 1015.0 0.0
29/06:30pm 24.5 19.0 9.0 37 8.4 SSW 28 43 15 23 1015.1 1014.9 0.0
29/06:00pm 25.6 19.4 8.0 32 9.4 SSW 30 43 16 23 1014.9 1014.7 0.0
29/05:30pm 26.3 19.8 8.3 32 9.7 SSW 32 43 17 23 1014.9 1014.7 0.0
29/05:00pm 27.3 21.3 6.9 27 10.8 SSW 28 39 15 21 1015.1 1014.9 0.0
29/04:30pm 27.5 20.8 5.8 25 11.3 S 30 44 16 24 1015.2 1015.0 0.0
29/04:03pm 28.0 20.2 2.0 18 12.7 SSE 32 50 17 27 1015.3 1015.1 0.0
29/04:00pm 28.1 21.1 4.0 21 12.2 SSE 30 46 16 25 1015.3 1015.1 0.0
29/03:30pm 29.5 23.5 1.0 16 13.8 SE 22 37 12 20 1015.8 1015.6 0.0
29/03:00pm 27.9 20.2 -0.3 16 13.2 SSE 30 39 16 21 1016.1 1015.9 0.0
29/02:30pm 28.4 22.6 0.1 16 13.4 SSE 20 35 11 19 1016.4 1016.2 0.0
29/02:00pm 27.0 21.0 -1.7 15 13.0 SSE 20 32 11 17 1016.8 1016.6 0.0
29/01:30pm 27.7 21.6 0.1 16 13.0 SSE 22 33 12 18 1017.2 1017.0 0.0
29/01:00pm 26.4 19.8 -0.5 17 12.4 ESE 24 35 13 19 1017.7 1017.5 0.0
29/12:30pm 25.6 20.1 0.5 19 11.7 ESE 19 30 10 16 1018.0 1017.8 0.0
29/12:00pm 24.7 19.4 2.1 23 10.8 SE 19 28 10 15 1018.3 1018.1 0.0
29/11:30am 23.0 18.3 3.3 27 9.5 E 17 24 9 13 1018.6 1018.4 0.0
29/11:00am 22.1 17.6 4.3 31 8.7 ESE 17 30 9 16 1018.9 1018.7 0.0
29/10:30am 21.5 17.5 5.1 34 8.1 SE 15 24 8 13 1019.3 1019.1 0.0
29/10:00am 19.9 15.7 5.5 39 7.1 E 17 24 9 13 1019.4 1019.2 0.0
29/09:30am 18.5 14.7 5.9 43 6.2 ESE 15 22 8 12 1019.6 1019.4 0.0
29/09:00am 17.2 14.3 6.4 49 5.3 SE 11 17 6 9 1019.7 1019.5 0.0
29/08:30am 17.0 14.1 6.4 49 5.2 SE 11 19 6 10 1019.7 1019.5 0.0
29/08:00am 16.3 13.7 6.0 50 5.0 SSE 9 15 5 8 1019.4 1019.2 0.0
29/07:30am 15.4 12.4 6.1 54 4.5 SE 11 17 6 9 1019.3 1019.1 0.0
29/07:00am 13.5 10.6 6.4 62 3.4 SSW 11 15 6 8 1018.8 1018.6 0.0
29/06:30am 11.9 8.6 6.2 68 2.7 WSW 13 17 7 9 1018.5 1018.3 0.0
29/06:00am 12.1 8.8 6.4 68 2.7 SSW 13 13 7 7 1017.9 1017.7 0.0
29/05:30am 12.6 9.3 6.5 66 2.9 SSW 13 17 7 9 1017.6 1017.4 0.0
29/05:00am 13.8 10.5 6.5 61 3.5 SW 13 15 7 8 1017.3 1017.1 0.0
29/04:30am 14.9 11.2 6.4 57 4.1 SSW 15 22 8 12 1017.1 1016.9 0.0
29/04:00am 13.9 10.3 6.9 62 3.4 SW 15 17 8 9 1017.0 1016.8 0.0
29/03:30am 14.0 11.1 8.0 67 3.0 SSW 13 17 7 9 1016.7 1016.5 0.0
29/03:00am 14.5 12.2 9.0 69 2.8 SW 11 13 6 7 1016.4 1016.2 0.0
29/02:30am 15.5 13.1 9.9 69 2.9 S 13 19 7 10 1016.3 1016.1 0.0
29/02:00am 16.5 13.9 10.7 68 3.1 SSE 15 19 8 10 1016.2 1016.0 0.0
29/01:30am 16.0 13.9 12.4 79 2.0 SSW 15 20 8 11 1016.2 1016.0 0.0
29/01:00am 16.2 13.8 13.7 85 1.4 SW 19 22 10 12 1016.3 1016.1 0.0
29/12:30am 16.3 14.1 14.4 88 1.1 SW 19 24 10 13 1016.2 1016.0 0.0
29/12:00am 16.2 15.2 14.5 90 1.0 WSW 13 17 7 9 1016.4 1016.2 0.0
 
Date/Time
CDT
Tmp

°C
App
Tmp
°C
Dew
Point
°C
Rel
Hum
%
Delta-T

°C
Wind Press
QNH
hPa
Press
MSL
hPa
Rain
since
9 am
mm
Dir
 
Spd
km/h
Gust
km/h
Spd
kts
Gust
kts
28/11:30pm 16.2 15.2 14.5 90 1.0 SW 13 17 7 9 1016.3 1016.1 0.0
28/11:00pm 16.7 14.6 14.8 88 1.1 SW 19 24 10 13 1016.5 1016.3 0.0
28/10:30pm 16.9 14.3 14.8 87 1.2 SW 22 37 12 20 1016.5 1016.3 0.0
28/10:00pm 17.1 14.1 14.7 86 1.4 SW 24 32 13 17 1016.6 1016.4 0.0
28/09:30pm 17.2 13.7 14.6 85 1.5 SW 26 32 14 17 1016.4 1016.2 0.0
28/09:00pm 17.7 14.2 14.6 82 1.8 SW 26 35 14 19 1016.3 1016.1 0.0

Latest Capital City Observations: Canberra | Sydney | Melbourne | Brisbane | Adelaide | Perth | Hobart | Darwin

Other Formats:

Comma delimited format used in spreadsheet applications
http://www.bom.gov.au/fwo/IDS60901/IDS60901.95818.axf

JavaScript Object Notation format (JSON) in row-major order
http://www.bom.gov.au/fwo/IDS60901/IDS60901.95818.json